Jupiter — WDG5267 — position and weather

sailwx.info

Track history (hours):
 
Tides and Currents Weather Stations Pressure Air Temp Water Temp Dewpoint Dewpoint Depression Visibility Wind Speed Wind Dir Waves Ship Positions

Jupiter

Owner: Planetary Positioning LLC, Saint Louis, MO. More information available from US FCC via Universal Licensing System and Coast Guard Vessel Documentation Center.

Last reported at 2018-May-14 00:23 UTC. Time now 2018-May-21 15:02 UTC.
Position N 48°45' W 122°30'.

Length 16 m.

Type: Pleasure craft. MMSI: 367554880.

Date/timePositionNaut miles runAvg speedWind from/ knotsBaromVisibWave heightAir tempDewpointWater temp
2018-May-14 00:23N 48°45' W 122°30'8 1.5
2018-May-13 18:53N 48°38' W 122°36'5 7.5
2018-May-13 18:09N 48°36' W 122°44'1 6.5
2018-May-13 18:00N 48°36' W 122°45'4 7.1
2018-May-13 17:30N 48°35' W 122°50'13 4.8
2018-May-13 14:52N 48°37' W 123°09'0 0.3
2018-May-13 14:30N 48°37' W 123°09'0 0.0
2018-May-13 14:00N 48°37' W 123°09'0 0.0
2018-May-13 13:30N 48°37' W 123°09'0 0.0
2018-May-13 13:00N 48°37' W 123°09'0 0.0
2018-May-13 12:30N 48°37' W 123°09'0 0.0
2018-May-13 12:00N 48°37' W 123°09'0 0.0
2018-May-13 11:30N 48°37' W 123°09'0 0.0
2018-May-13 11:00N 48°37' W 123°09'0 0.0
2018-May-13 10:30N 48°37' W 123°09'0 0.0
2018-May-13 10:00N 48°37' W 123°09'0 0.0
2018-May-13 09:18N 48°37' W 123°09'0 0.0
2018-May-13 09:00N 48°37' W 123°09'0 0.0
2018-May-13 08:30N 48°37' W 123°09'0 0.0
2018-May-12 14:48N 48°37' W 123°09'0 0.0
2018-May-12 14:30N 48°37' W 123°09'0 0.0
2018-May-12 13:54N 48°37' W 123°09'0 0.0
2018-May-12 13:30N 48°37' W 123°09'0 0.0
2018-May-12 12:57N 48°37' W 123°09'0 0.0
2018-May-12 12:30N 48°37' W 123°09'0 0.0
2018-May-12 12:00N 48°37' W 123°09'0 0.0
2018-May-12 11:30N 48°37' W 123°09'0 0.0
2018-May-12 11:00N 48°37' W 123°09'0 0.0
2018-May-12 10:30N 48°37' W 123°09'0 0.0
2018-May-12 09:57N 48°37' W 123°09'0 0.0
2018-May-12 09:30N 48°37' W 123°09'0 0.0
2018-May-12 09:00N 48°37' W 123°09'7 0.4
2018-May-11 16:18N 48°30' W 123°13'615.0
2018-May-11 15:56N 48°24' W 123°13'6 0.2
2018-May-10 08:54N 48°25' W 123°22'0 0.0
2018-May-10 05:45N 48°25' W 123°22'  
Track history (hours):
 
Tides and Currents Weather Stations Pressure Air Temp Water Temp Dewpoint Dewpoint Depression Visibility Wind Speed Wind Dir Waves Ship Positions

Jupiter

Owner: Planetary Positioning LLC, Saint Louis, MO. More information available from US FCC via Universal Licensing System and Coast Guard Vessel Documentation Center.

Last reported at 2018-May-14 00:23 UTC. Time now 2018-May-21 15:02 UTC.
Position N 48°45' W 122°30'.

Length 16 m.

Type: Pleasure craft. MMSI: 367554880.

Date/timePositionNaut miles runAvg speedWind from/ knotsBaromVisibWave heightAir tempDewpointWater temp
2018-May-14 00:23N 48°45' W 122°30'8 1.5
2018-May-13 18:53N 48°38' W 122°36'5 7.5
2018-May-13 18:09N 48°36' W 122°44'1 6.5
2018-May-13 18:00N 48°36' W 122°45'4 7.1
2018-May-13 17:30N 48°35' W 122°50'13 4.8
2018-May-13 14:52N 48°37' W 123°09'0 0.3
2018-May-13 14:30N 48°37' W 123°09'0 0.0
2018-May-13 14:00N 48°37' W 123°09'0 0.0
2018-May-13 13:30N 48°37' W 123°09'0 0.0
2018-May-13 13:00N 48°37' W 123°09'0 0.0
2018-May-13 12:30N 48°37' W 123°09'0 0.0
2018-May-13 12:00N 48°37' W 123°09'0 0.0
2018-May-13 11:30N 48°37' W 123°09'0 0.0
2018-May-13 11:00N 48°37' W 123°09'0 0.0
2018-May-13 10:30N 48°37' W 123°09'0 0.0
2018-May-13 10:00N 48°37' W 123°09'0 0.0
2018-May-13 09:18N 48°37' W 123°09'0 0.0
2018-May-13 09:00N 48°37' W 123°09'0 0.0
2018-May-13 08:30N 48°37' W 123°09'0 0.0
2018-May-12 14:48N 48°37' W 123°09'0 0.0
2018-May-12 14:30N 48°37' W 123°09'0 0.0
2018-May-12 13:54N 48°37' W 123°09'0 0.0
2018-May-12 13:30N 48°37' W 123°09'0 0.0
2018-May-12 12:57N 48°37' W 123°09'0 0.0
2018-May-12 12:30N 48°37' W 123°09'0 0.0
2018-May-12 12:00N 48°37' W 123°09'0 0.0
2018-May-12 11:30N 48°37' W 123°09'0 0.0
2018-May-12 11:00N 48°37' W 123°09'0 0.0
2018-May-12 10:30N 48°37' W 123°09'0 0.0
2018-May-12 09:57N 48°37' W 123°09'0 0.0
2018-May-12 09:30N 48°37' W 123°09'0 0.0
2018-May-12 09:00N 48°37' W 123°09'7 0.4
2018-May-11 16:18N 48°30' W 123°13'615.0
2018-May-11 15:56N 48°24' W 123°13'6 0.2
2018-May-10 08:54N 48°25' W 123°22'0 0.0
2018-May-10 05:45N 48°25' W 123°22'  

Dump ship's entire track history